sensor_id;sensor_type;location;lat;lon;timestamp;pressure;altitude;pressure_sealevel;temperature;humidity
54900;BME280;40801;41.924;25.562;2024-03-17T00:00:23;99873.28;;;9.31;71.54
54900;BME280;40801;41.924;25.562;2024-03-17T00:02:48;99877.09;;;9.25;71.66
54900;BME280;40801;41.924;25.562;2024-03-17T00:05:14;99878.50;;;9.18;71.34
54900;BME280;40801;41.924;25.562;2024-03-17T00:07:40;99875.56;;;9.14;72.24
54900;BME280;40801;41.924;25.562;2024-03-17T00:10:06;99868.59;;;9.13;71.61
54900;BME280;40801;41.924;25.562;2024-03-17T00:12:35;99869.72;;;9.07;72.11
54900;BME280;40801;41.924;25.562;2024-03-17T00:15:01;99864.63;;;9.06;71.56
54900;BME280;40801;41.924;25.562;2024-03-17T00:17:27;99867.31;;;9.06;71.81
54900;BME280;40801;41.924;25.562;2024-03-17T00:19:52;99870.88;;;8.96;72.27
54900;BME280;40801;41.924;25.562;2024-03-17T00:22:17;99872.28;;;8.88;72.98
54900;BME280;40801;41.924;25.562;2024-03-17T00:24:43;99876.31;;;8.91;72.78
54900;BME280;40801;41.924;25.562;2024-03-17T00:27:09;99871.25;;;8.84;72.73
54900;BME280;40801;41.924;25.562;2024-03-17T00:29:35;99872.63;;;8.82;72.86
54900;BME280;40801;41.924;25.562;2024-03-17T00:32:00;99869.13;;;8.81;72.77
54900;BME280;40801;41.924;25.562;2024-03-17T00:34:26;99873.75;;;8.76;73.32
54900;BME280;40801;41.924;25.562;2024-03-17T00:36:51;99877.28;;;8.71;73.63
54900;BME280;40801;41.924;25.562;2024-03-17T00:39:17;99882.13;;;8.69;74.16
54900;BME280;40801;41.924;25.562;2024-03-17T00:41:43;99881.63;;;8.62;74.48
54900;BME280;40801;41.924;25.562;2024-03-17T00:44:09;99883.28;;;8.58;74.69
54900;BME280;40801;41.924;25.562;2024-03-17T00:46:34;99872.53;;;8.58;74.46
54900;BME280;40801;41.924;25.562;2024-03-17T00:49:00;99876.25;;;8.62;74.36
54900;BME280;40801;41.924;25.562;2024-03-17T00:51:26;99871.69;;;8.62;74.27
54900;BME280;40801;41.924;25.562;2024-03-17T00:53:51;99872.19;;;8.64;74.43
54900;BME280;40801;41.924;25.562;2024-03-17T00:56:16;99872.72;;;8.66;74.42
54900;BME280;40801;41.924;25.562;2024-03-17T00:58:42;99877.28;;;8.66;73.86
54900;BME280;40801;41.924;25.562;2024-03-17T01:01:09;99875.16;;;8.63;74.27
54900;BME280;40801;41.924;25.562;2024-03-17T01:03:35;99873.03;;;8.60;74.30
54900;BME280;40801;41.924;25.562;2024-03-17T01:06:03;99862.06;;;8.56;73.55
54900;BME280;40801;41.924;25.562;2024-03-17T01:08:30;99866.88;;;8.59;73.58
54900;BME280;40801;41.924;25.562;2024-03-17T01:10:55;99874.16;;;8.54;74.26
54900;BME280;40801;41.924;25.562;2024-03-17T01:13:20;99862.41;;;8.45;75.16
54900;BME280;40801;41.924;25.562;2024-03-17T01:15:51;99874.00;;;8.35;75.01
54900;BME280;40801;41.924;25.562;2024-03-17T01:18:16;99870.84;;;8.18;75.33
54900;BME280;40801;41.924;25.562;2024-03-17T01:20:42;99866.25;;;8.23;74.83
54900;BME280;40801;41.924;25.562;2024-03-17T01:23:07;99867.06;;;8.24;75.03
54900;BME280;40801;41.924;25.562;2024-03-17T01:25:33;99867.94;;;8.09;75.34
54900;BME280;40801;41.924;25.562;2024-03-17T01:28:05;99868.78;;;7.99;75.44
54900;BME280;40801;41.924;25.562;2024-03-17T01:30:31;99864.00;;;7.91;76.17
54900;BME280;40801;41.924;25.562;2024-03-17T01:32:58;99858.88;;;7.95;75.31
54900;BME280;40801;41.924;25.562;2024-03-17T01:35:25;99852.19;;;7.92;76.17
54900;BME280;40801;41.924;25.562;2024-03-17T01:37:50;99854.84;;;7.92;75.94
54900;BME280;40801;41.924;25.562;2024-03-17T01:40:15;99864.81;;;7.87;76.06
54900;BME280;40801;41.924;25.562;2024-03-17T01:42:41;99855.72;;;7.72;76.35
54900;BME280;40801;41.924;25.562;2024-03-17T01:45:33;99861.41;;;7.66;76.62
54900;BME280;40801;41.924;25.562;2024-03-17T01:48:00;99860.59;;;7.65;76.52
54900;BME280;40801;41.924;25.562;2024-03-17T01:50:34;99861.66;;;7.64;75.77
54900;BME280;40801;41.924;25.562;2024-03-17T01:53:02;99863.03;;;7.62;75.94
54900;BME280;40801;41.924;25.562;2024-03-17T01:55:31;99869.50;;;7.56;75.65
54900;BME280;40801;41.924;25.562;2024-03-17T01:57:57;99876.75;;;7.45;75.53
54900;BME280;40801;41.924;25.562;2024-03-17T02:00:23;99866.03;;;7.40;75.80
54900;BME280;40801;41.924;25.562;2024-03-17T02:02:49;99869.81;;;7.34;76.45
54900;BME280;40801;41.924;25.562;2024-03-17T02:05:14;99865.25;;;7.24;76.42
54900;BME280;40801;41.924;25.562;2024-03-17T02:07:39;99866.88;;;7.25;76.24
54900;BME280;40801;41.924;25.562;2024-03-17T02:10:06;99875.97;;;7.29;76.36
54900;BME280;40801;41.924;25.562;2024-03-17T02:12:34;99875.69;;;7.21;77.04
54900;BME280;40801;41.924;25.562;2024-03-17T02:15:00;99874.63;;;7.17;77.16
54900;BME280;40801;41.924;25.562;2024-03-17T02:17:26;99874.38;;;7.13;77.68
54900;BME280;40801;41.924;25.562;2024-03-17T02:19:53;99872.22;;;7.20;77.10
54900;BME280;40801;41.924;25.562;2024-03-17T02:22:19;99863.63;;;7.18;77.05
54900;BME280;40801;41.924;25.562;2024-03-17T02:24:45;99874.09;;;7.20;76.91
54900;BME280;40801;41.924;25.562;2024-03-17T02:27:10;99870.34;;;7.31;75.63
54900;BME280;40801;41.924;25.562;2024-03-17T02:29:36;99876.50;;;7.31;76.47
54900;BME280;40801;41.924;25.562;2024-03-17T02:32:07;99877.59;;;7.25;76.11
54900;BME280;40801;41.924;25.562;2024-03-17T02:34:34;99873.03;;;7.21;76.65
54900;BME280;40801;41.924;25.562;2024-03-17T02:36:59;99883.78;;;7.10;77.21
54900;BME280;40801;41.924;25.562;2024-03-17T02:39:25;99883.50;;;7.02;77.13
54900;BME280;40801;41.924;25.562;2024-03-17T02:42:03;99894.25;;;7.02;77.67
54900;BME280;40801;41.924;25.562;2024-03-17T02:44:30;99887.53;;;7.04;77.06
54900;BME280;40801;41.924;25.562;2024-03-17T02:46:57;99881.34;;;7.14;76.53
54900;BME280;40801;41.924;25.562;2024-03-17T02:49:23;99875.97;;;7.29;75.54
54900;BME280;40801;41.924;25.562;2024-03-17T02:51:48;99874.91;;;7.30;76.10
54900;BME280;40801;41.924;25.562;2024-03-17T02:54:14;99879.72;;;7.33;75.64
54900;BME280;40801;41.924;25.562;2024-03-17T02:56:39;99877.31;;;7.32;76.33
54900;BME280;40801;41.924;25.562;2024-03-17T02:59:05;99871.94;;;7.22;76.49
54900;BME280;40801;41.924;25.562;2024-03-17T03:01:31;99873.84;;;7.16;75.68
54900;BME280;40801;41.924;25.562;2024-03-17T03:03:57;99871.72;;;7.03;76.79
54900;BME280;40801;41.924;25.562;2024-03-17T03:06:22;99872.25;;;7.00;76.96
54900;BME280;40801;41.924;25.562;2024-03-17T03:08:48;99873.31;;;7.04;76.79
54900;BME280;40801;41.924;25.562;2024-03-17T03:11:16;99875.47;;;6.97;77.32
54900;BME280;40801;41.924;25.562;2024-03-17T03:13:42;99883.50;;;6.92;77.98
54900;BME280;40801;41.924;25.562;2024-03-17T03:16:10;99870.34;;;6.90;77.98
54900;BME280;40801;41.924;25.562;2024-03-17T03:18:36;99878.66;;;7.14;76.65
54900;BME280;40801;41.924;25.562;2024-03-17T03:21:03;99883.78;;;7.10;76.94
54900;BME280;40801;41.924;25.562;2024-03-17T03:23:30;99877.31;;;7.22;76.44
54900;BME280;40801;41.924;25.562;2024-03-17T03:25:56;99884.81;;;7.35;75.68
54900;BME280;40801;41.924;25.562;2024-03-17T03:28:25;99889.66;;;7.33;76.40
54900;BME280;40801;41.924;25.562;2024-03-17T03:30:50;99889.66;;;7.33;76.41
54900;BME280;40801;41.924;25.562;2024-03-17T03:33:17;99880.28;;;7.25;76.87
54900;BME280;40801;41.924;25.562;2024-03-17T03:35:43;99880.00;;;7.27;76.53
54900;BME280;40801;41.924;25.562;2024-03-17T03:38:08;99886.44;;;7.31;77.07
54900;BME280;40801;41.924;25.562;2024-03-17T03:40:34;99885.38;;;7.27;76.44
54900;BME280;40801;41.924;25.562;2024-03-17T03:42:59;99881.09;;;7.26;76.90
54900;BME280;40801;41.924;25.562;2024-03-17T03:45:25;99890.47;;;7.33;76.50
54900;BME280;40801;41.924;25.562;2024-03-17T03:47:51;99883.19;;;7.44;75.54
54900;BME280;40801;41.924;25.562;2024-03-17T03:50:20;99893.13;;;7.43;75.75
54900;BME280;40801;41.924;25.562;2024-03-17T03:52:46;99890.72;;;7.37;77.10
54900;BME280;40801;41.924;25.562;2024-03-17T03:55:12;99903.03;;;7.43;75.90
54900;BME280;40801;41.924;25.562;2024-03-17T03:57:41;99902.28;;;7.27;76.90
54900;BME280;40801;41.924;25.562;2024-03-17T04:00:08;99908.69;;;7.21;77.28
54900;BME280;40801;41.924;25.562;2024-03-17T04:02:42;99905.75;;;7.18;77.60
54900;BME280;40801;41.924;25.562;2024-03-17T04:05:09;99907.09;;;7.05;78.79
54900;BME280;40801;41.924;25.562;2024-03-17T04:07:34;99914.09;;;7.01;79.00
54900;BME280;40801;41.924;25.562;2024-03-17T04:10:04;99916.75;;;7.06;78.68
54900;BME280;40801;41.924;25.562;2024-03-17T04:12:30;99909.25;;;7.08;77.89
54900;BME280;40801;41.924;25.562;2024-03-17T04:14:57;99911.38;;;7.11;78.41
54900;BME280;40801;41.924;25.562;2024-03-17T04:17:22;99921.84;;;7.12;78.85
54900;BME280;40801;41.924;25.562;2024-03-17T04:19:51;99918.88;;;6.94;79.66
54900;BME280;40801;41.924;25.562;2024-03-17T04:22:18;99932.03;;;7.10;79.16
54900;BME280;40801;41.924;25.562;2024-03-17T04:24:45;99925.59;;;7.17;78.28
54900;BME280;40801;41.924;25.562;2024-03-17T04:27:10;99930.44;;;7.25;77.78
54900;BME280;40801;41.924;25.562;2024-03-17T04:29:37;99936.09;;;7.23;78.56
54900;BME280;40801;41.924;25.562;2024-03-17T04:32:02;99929.09;;;7.22;79.27
54900;BME280;40801;41.924;25.562;2024-03-17T04:34:30;99936.88;;;7.29;78.62
54900;BME280;40801;41.924;25.562;2024-03-17T04:36:56;99937.13;;;7.37;78.60
54900;BME280;40801;41.924;25.562;2024-03-17T04:39:22;99928.53;;;7.45;77.69
54900;BME280;40801;41.924;25.562;2024-03-17T04:41:48;99929.31;;;7.51;77.75
54900;BME280;40801;41.924;25.562;2024-03-17T04:44:13;99940.88;;;7.57;77.78
54900;BME280;40801;41.924;25.562;2024-03-17T04:46:39;99933.31;;;7.69;76.53
54900;BME280;40801;41.924;25.562;2024-03-17T04:49:05;99937.88;;;7.73;76.34
54900;BME280;40801;41.924;25.562;2024-03-17T04:51:31;99941.09;;;7.81;76.01
54900;BME280;40801;41.924;25.562;2024-03-17T04:53:58;99939.75;;;7.83;76.80
54900;BME280;40801;41.924;25.562;2024-03-17T04:56:24;99935.16;;;7.89;76.30
54900;BME280;40801;41.924;25.562;2024-03-17T04:58:49;99945.91;;;7.89;76.51
54900;BME280;40801;41.924;25.562;2024-03-17T05:01:15;99936.00;;;7.84;78.02
54900;BME280;40801;41.924;25.562;2024-03-17T05:03:40;99939.47;;;7.80;78.55
54900;BME280;40801;41.924;25.562;2024-03-17T05:06:05;99940.28;;;7.85;78.19
54900;BME280;40801;41.924;25.562;2024-03-17T05:08:32;99943.22;;;7.89;79.08
54900;BME280;40801;41.924;25.562;2024-03-17T05:11:05;99945.63;;;7.90;79.14
54900;BME280;40801;41.924;25.562;2024-03-17T05:13:32;99947.50;;;7.90;78.77
54900;BME280;40801;41.924;25.562;2024-03-17T05:15:57;99956.06;;;7.97;78.81
54900;BME280;40801;41.924;25.562;2024-03-17T05:18:24;99947.50;;;7.90;79.26
54900;BME280;40801;41.924;25.562;2024-03-17T05:21:02;99945.63;;;7.95;79.67
54900;BME280;40801;41.924;25.562;2024-03-17T05:23:29;99953.63;;;8.11;78.60
54900;BME280;40801;41.924;25.562;2024-03-17T05:25:56;99953.91;;;8.04;79.17
54900;BME280;40801;41.924;25.562;2024-03-17T05:28:23;99954.44;;;8.11;79.17
54900;BME280;40801;41.924;25.562;2024-03-17T05:30:48;99953.34;;;8.17;79.22
54900;BME280;40801;41.924;25.562;2024-03-17T05:33:16;99958.47;;;8.14;79.51
54900;BME280;40801;41.924;25.562;2024-03-17T05:35:50;99959.00;;;8.11;79.10
54900;BME280;40801;41.924;25.562;2024-03-17T05:38:19;99963.56;;;8.05;80.01
54900;BME280;40801;41.924;25.562;2024-03-17T05:40:51;99970.00;;;8.09;79.99
54900;BME280;40801;41.924;25.562;2024-03-17T05:43:17;99957.59;;;8.23;78.88
54900;BME280;40801;41.924;25.562;2024-03-17T05:45:42;99957.31;;;8.25;79.15
54900;BME280;40801;41.924;25.562;2024-03-17T05:48:09;99964.84;;;8.28;79.41
54900;BME280;40801;41.924;25.562;2024-03-17T05:50:34;99962.13;;;8.33;79.36
54900;BME280;40801;41.924;25.562;2024-03-17T05:53:00;99961.31;;;8.37;79.46
54900;BME280;40801;41.924;25.562;2024-03-17T05:55:25;99961.84;;;8.45;79.71
54900;BME280;40801;41.924;25.562;2024-03-17T05:57:51;99966.31;;;8.64;78.55
54900;BME280;40801;41.924;25.562;2024-03-17T06:00:16;99967.06;;;8.75;78.19
54900;BME280;40801;41.924;25.562;2024-03-17T06:02:42;99973.16;;;8.86;78.59
54900;BME280;40801;41.924;25.562;2024-03-17T06:05:09;99976.63;;;8.91;78.58
54900;BME280;40801;41.924;25.562;2024-03-17T06:07:37;99970.72;;;8.89;78.68
54900;BME280;40801;41.924;25.562;2024-03-17T06:10:03;99966.88;;;9.06;77.95
54900;BME280;40801;41.924;25.562;2024-03-17T06:12:28;99976.25;;;9.08;78.34
54900;BME280;40801;41.924;25.562;2024-03-17T06:14:55;99974.09;;;9.10;78.32
54900;BME280;40801;41.924;25.562;2024-03-17T06:17:21;99986.63;;;9.25;78.27
54900;BME280;40801;41.924;25.562;2024-03-17T06:19:46;99982.97;;;9.45;76.92
54900;BME280;40801;41.924;25.562;2024-03-17T06:22:12;99984.44;;;9.61;76.17
54900;BME280;40801;41.924;25.562;2024-03-17T06:24:37;99990.19;;;9.54;75.92
54900;BME280;40801;41.924;25.562;2024-03-17T06:27:03;99986.09;;;9.57;76.19
54900;BME280;40801;41.924;25.562;2024-03-17T06:29:28;99983.94;;;9.59;76.44
54900;BME280;40801;41.924;25.562;2024-03-17T06:31:54;99990.78;;;9.75;76.21
54900;BME280;40801;41.924;25.562;2024-03-17T06:34:20;99998.25;;;9.83;76.36
54900;BME280;40801;41.924;25.562;2024-03-17T06:36:47;99997.50;;;10.02;75.37
54900;BME280;40801;41.924;25.562;2024-03-17T06:39:13;99989.72;;;10.00;75.78
54900;BME280;40801;41.924;25.562;2024-03-17T06:41:43;100003.03;;;10.15;75.04
54900;BME280;40801;41.924;25.562;2024-03-17T06:44:09;99997.34;;;10.22;74.77
54900;BME280;40801;41.924;25.562;2024-03-17T06:46:34;99997.38;;;10.12;75.19
54900;BME280;40801;41.924;25.562;2024-03-17T06:49:00;100001.16;;;10.16;75.48
54900;BME280;40801;41.924;25.562;2024-03-17T06:51:25;100001.84;;;10.27;75.80
54900;BME280;40801;41.924;25.562;2024-03-17T06:53:50;100007.75;;;10.29;74.68
54900;BME280;40801;41.924;25.562;2024-03-17T06:56:16;99997.94;;;10.38;74.16
54900;BME280;40801;41.924;25.562;2024-03-17T06:58:41;100001.34;;;10.48;74.01
54900;BME280;40801;41.924;25.562;2024-03-17T07:01:08;100003.53;;;10.46;74.12
54900;BME280;40801;41.924;25.562;2024-03-17T07:03:34;100008.25;;;10.54;73.79
54900;BME280;40801;41.924;25.562;2024-03-17T07:06:01;100010.88;;;10.60;73.10
54900;BME280;40801;41.924;25.562;2024-03-17T07:08:28;100010.44;;;10.52;73.57
54900;BME280;40801;41.924;25.562;2024-03-17T07:11:01;100020.28;;;10.43;73.91
54900;BME280;40801;41.924;25.562;2024-03-17T07:13:33;100014.97;;;10.57;73.49
54900;BME280;40801;41.924;25.562;2024-03-17T07:16:03;100024.53;;;10.68;73.41
54900;BME280;40801;41.924;25.562;2024-03-17T07:18:29;100026.09;;;10.74;73.32
54900;BME280;40801;41.924;25.562;2024-03-17T07:20:59;100014.72;;;10.96;72.84
54900;BME280;40801;41.924;25.562;2024-03-17T07:23:25;100012.47;;;11.03;72.52
54900;BME280;40801;41.924;25.562;2024-03-17T07:25:58;100012.81;;;11.15;72.03
54900;BME280;40801;41.924;25.562;2024-03-17T07:28:24;100009.81;;;11.36;71.75
54900;BME280;40801;41.924;25.562;2024-03-17T07:30:54;100010.72;;;11.31;71.10
54900;BME280;40801;41.924;25.562;2024-03-17T07:33:22;100011.53;;;11.45;70.54
54900;BME280;40801;41.924;25.562;2024-03-17T07:38:17;100013.56;;;11.54;69.91
54900;BME280;40801;41.924;25.562;2024-03-17T07:40:44;100013.91;;;11.66;69.60
54900;BME280;40801;41.924;25.562;2024-03-17T07:43:10;100017.78;;;11.78;69.53
54900;BME280;40801;41.924;25.562;2024-03-17T07:45:35;100013.63;;;12.00;69.25
54900;BME280;40801;41.924;25.562;2024-03-17T07:48:00;100014.84;;;12.35;67.76
54900;BME280;40801;41.924;25.562;2024-03-17T07:50:26;100012.84;;;12.27;67.73
54900;BME280;40801;41.924;25.562;2024-03-17T07:52:52;100015.13;;;12.33;67.21
54900;BME280;40801;41.924;25.562;2024-03-17T07:55:17;100010.03;;;12.32;66.52
54900;BME280;40801;41.924;25.562;2024-03-17T07:57:43;100012.34;;;12.25;67.44
54900;BME280;40801;41.924;25.562;2024-03-17T08:00:08;100013.06;;;12.44;66.82
54900;BME280;40801;41.924;25.562;2024-03-17T08:02:44;100010.72;;;12.65;65.89
54900;BME280;40801;41.924;25.562;2024-03-17T08:05:10;100010.53;;;12.61;66.89
54900;BME280;40801;41.924;25.562;2024-03-17T08:07:35;100014.41;;;12.69;66.72
54900;BME280;40801;41.924;25.562;2024-03-17T08:10:00;100003.88;;;12.81;66.21
54900;BME280;40801;41.924;25.562;2024-03-17T08:12:28;100001.56;;;12.88;65.30
54900;BME280;40801;41.924;25.562;2024-03-17T08:14:54;99999.44;;;13.35;64.91
54900;BME280;40801;41.924;25.562;2024-03-17T08:17:19;100000.75;;;13.69;64.03
54900;BME280;40801;41.924;25.562;2024-03-17T08:19:45;99998.84;;;13.69;63.75
54900;BME280;40801;41.924;25.562;2024-03-17T08:22:10;99992.41;;;14.18;62.18
54900;BME280;40801;41.924;25.562;2024-03-17T08:24:36;99989.72;;;14.36;61.74
54900;BME280;40801;41.924;25.562;2024-03-17T08:27:01;99981.91;;;14.25;61.41
54900;BME280;40801;41.924;25.562;2024-03-17T08:29:26;99984.22;;;14.49;61.32
54900;BME280;40801;41.924;25.562;2024-03-17T08:31:52;99984.47;;;14.31;61.09
54900;BME280;40801;41.924;25.562;2024-03-17T08:34:17;99971.50;;;14.84;60.32
54900;BME280;40801;41.924;25.562;2024-03-17T08:36:42;99969.09;;;15.00;59.59
54900;BME280;40801;41.924;25.562;2024-03-17T08:39:08;99968.00;;;15.18;59.15
54900;BME280;40801;41.924;25.562;2024-03-17T08:41:36;99976.28;;;15.65;58.07
54900;BME280;40801;41.924;25.562;2024-03-17T08:44:01;99971.47;;;15.45;57.59
54900;BME280;40801;41.924;25.562;2024-03-17T08:46:27;99972.94;;;15.42;57.33
54900;BME280;40801;41.924;25.562;2024-03-17T08:48:52;99974.97;;;15.71;56.79
54900;BME280;40801;41.924;25.562;2024-03-17T08:51:18;99967.75;;;15.75;56.29
54900;BME280;40801;41.924;25.562;2024-03-17T08:53:44;99969.00;;;15.87;56.38
54900;BME280;40801;41.924;25.562;2024-03-17T08:56:10;99965.81;;;15.85;55.73
54900;BME280;40801;41.924;25.562;2024-03-17T08:58:35;99964.38;;;16.17;55.60
54900;BME280;40801;41.924;25.562;2024-03-17T09:01:05;99959.28;;;16.15;54.79
54900;BME280;40801;41.924;25.562;2024-03-17T09:03:30;99962.16;;;16.48;55.09
54900;BME280;40801;41.924;25.562;2024-03-17T09:05:56;99955.97;;;16.89;54.64
54900;BME280;40801;41.924;25.562;2024-03-17T09:08:23;99949.50;;;17.48;53.02
54900;BME280;40801;41.924;25.562;2024-03-17T09:10:51;99957.72;;;17.93;51.00
54900;BME280;40801;41.924;25.562;2024-03-17T09:13:27;99953.28;;;18.37;49.92
54900;BME280;40801;41.924;25.562;2024-03-17T09:15:57;99951.44;;;18.53;48.95
54900;BME280;40801;41.924;25.562;2024-03-17T09:18:25;99953.81;;;18.79;49.35
54900;BME280;40801;41.924;25.562;2024-03-17T09:23:26;99946.94;;;19.54;47.49
54900;BME280;40801;41.924;25.562;2024-03-17T09:25:59;99941.41;;;19.82;44.76
54900;BME280;40801;41.924;25.562;2024-03-17T09:28:26;99945.72;;;20.14;45.36
54900;BME280;40801;41.924;25.562;2024-03-17T09:30:52;99933.00;;;20.06;44.96
54900;BME280;40801;41.924;25.562;2024-03-17T09:33:19;99944.13;;;20.13;44.62
54900;BME280;40801;41.924;25.562;2024-03-17T09:35:53;99940.41;;;19.90;43.96
54900;BME280;40801;41.924;25.562;2024-03-17T09:38:18;99933.88;;;19.63;44.99
54900;BME280;40801;41.924;25.562;2024-03-17T09:40:47;99928.03;;;19.64;43.45
54900;BME280;40801;41.924;25.562;2024-03-17T09:43:16;99930.06;;;20.30;42.85
54900;BME280;40801;41.924;25.562;2024-03-17T09:45:41;99930.47;;;20.48;42.83
54900;BME280;40801;41.924;25.562;2024-03-17T09:48:10;99923.59;;;20.73;42.12
54900;BME280;40801;41.924;25.562;2024-03-17T09:50:39;99921.31;;;20.95;42.19
54900;BME280;40801;41.924;25.562;2024-03-17T09:53:05;99911.69;;;21.66;41.55
54900;BME280;40801;41.924;25.562;2024-03-17T09:55:30;99926.31;;;22.19;40.28
54900;BME280;40801;41.924;25.562;2024-03-17T09:57:56;99919.03;;;22.04;39.80
54900;BME280;40801;41.924;25.562;2024-03-17T10:00:21;99925.22;;;22.50;39.70
54900;BME280;40801;41.924;25.562;2024-03-17T10:02:47;99916.50;;;22.18;38.99
54900;BME280;40801;41.924;25.562;2024-03-17T10:05:24;99910.91;;;22.68;35.85
54900;BME280;40801;41.924;25.562;2024-03-17T10:07:53;99912.25;;;23.11;37.89
54900;BME280;40801;41.924;25.562;2024-03-17T10:10:20;99906.53;;;23.27;36.19
54900;BME280;40801;41.924;25.562;2024-03-17T10:12:50;99898.84;;;23.43;35.48
54900;BME280;40801;41.924;25.562;2024-03-17T10:15:19;99899.56;;;23.73;36.58
54900;BME280;40801;41.924;25.562;2024-03-17T10:17:45;99898.50;;;23.92;35.69
54900;BME280;40801;41.924;25.562;2024-03-17T10:20:18;99893.00;;;23.48;34.62
54900;BME280;40801;41.924;25.562;2024-03-17T10:23:01;99889.69;;;24.27;33.79
54900;BME280;40801;41.924;25.562;2024-03-17T10:25:29;99884.06;;;24.71;34.27
54900;BME280;40801;41.924;25.562;2024-03-17T10:27:55;99885.25;;;24.78;34.42
54900;BME280;40801;41.924;25.562;2024-03-17T10:30:22;99883.16;;;24.50;34.42
54900;BME280;40801;41.924;25.562;2024-03-17T10:32:53;99878.06;;;23.93;34.02
54900;BME280;40801;41.924;25.562;2024-03-17T10:37:56;99869.66;;;22.98;35.84
54900;BME280;40801;41.924;25.562;2024-03-17T10:40:23;99876.66;;;23.66;35.72
54900;BME280;40801;41.924;25.562;2024-03-17T10:42:49;99879.78;;;23.64;35.23
54900;BME280;40801;41.924;25.562;2024-03-17T10:45:15;99876.47;;;24.47;34.15
54900;BME280;40801;41.924;25.562;2024-03-17T10:47:43;99870.38;;;24.96;33.48
54900;BME280;40801;41.924;25.562;2024-03-17T10:50:17;99869.69;;;25.35;31.40
54900;BME280;40801;41.924;25.562;2024-03-17T10:52:46;99859.47;;;25.53;32.17
54900;BME280;40801;41.924;25.562;2024-03-17T10:57:46;99855.38;;;26.61;30.95
54900;BME280;40801;41.924;25.562;2024-03-17T11:00:16;99856.47;;;26.78;30.26
54900;BME280;40801;41.924;25.562;2024-03-17T11:02:48;99859.25;;;26.78;30.79
54900;BME280;40801;41.924;25.562;2024-03-17T11:05:20;99853.47;;;26.33;30.53
54900;BME280;40801;41.924;25.562;2024-03-17T11:07:46;99840.69;;;27.41;29.80
54900;BME280;40801;41.924;25.562;2024-03-17T11:10:24;99838.81;;;27.83;28.57
54900;BME280;40801;41.924;25.562;2024-03-17T11:12:50;99834.16;;;27.69;29.31
54900;BME280;40801;41.924;25.562;2024-03-17T11:20:31;99825.28;;;28.60;26.56
54900;BME280;40801;41.924;25.562;2024-03-17T11:22:58;99817.63;;;29.02;26.96
54900;BME280;40801;41.924;25.562;2024-03-17T11:30:43;99815.31;;;28.66;25.99
54900;BME280;40801;41.924;25.562;2024-03-17T11:39:00;99804.00;;;29.11;26.90
54900;BME280;40801;41.924;25.562;2024-03-17T11:41:45;99804.47;;;30.03;25.53
54900;BME280;40801;41.924;25.562;2024-03-17T11:47:01;99788.34;;;29.47;24.84
54900;BME280;40801;41.924;25.562;2024-03-17T11:49:29;99789.13;;;29.24;26.21
54900;BME280;40801;41.924;25.562;2024-03-17T11:51:59;99787.66;;;29.40;25.07
54900;BME280;40801;41.924;25.562;2024-03-17T11:54:29;99785.03;;;29.56;25.73
54900;BME280;40801;41.924;25.562;2024-03-17T11:57:00;99773.41;;;29.84;24.55
54900;BME280;40801;41.924;25.562;2024-03-17T11:59:26;99777.19;;;29.94;25.36
54900;BME280;40801;41.924;25.562;2024-03-17T12:01:52;99773.13;;;29.79;24.83
54900;BME280;40801;41.924;25.562;2024-03-17T12:04:21;99769.72;;;29.68;24.47
54900;BME280;40801;41.924;25.562;2024-03-17T12:06:47;99762.97;;;29.69;24.65
54900;BME280;40801;41.924;25.562;2024-03-17T12:11:49;99763.38;;;30.70;23.14
54900;BME280;40801;41.924;25.562;2024-03-17T12:14:16;99758.00;;;30.00;23.67
54900;BME280;40801;41.924;25.562;2024-03-17T12:16:58;99754.13;;;29.04;23.94
54900;BME280;40801;41.924;25.562;2024-03-17T12:19:24;99749.03;;;28.72;25.34
54900;BME280;40801;41.924;25.562;2024-03-17T12:21:54;99747.81;;;28.73;24.79
54900;BME280;40801;41.924;25.562;2024-03-17T12:24:21;99746.66;;;27.27;26.75
54900;BME280;40801;41.924;25.562;2024-03-17T12:26:48;99739.25;;;27.58;26.48
54900;BME280;40801;41.924;25.562;2024-03-17T12:29:37;99745.88;;;27.71;25.87
54900;BME280;40801;41.924;25.562;2024-03-17T12:32:13;99738.25;;;27.82;26.19
54900;BME280;40801;41.924;25.562;2024-03-17T12:34:40;99734.75;;;28.43;25.48
54900;BME280;40801;41.924;25.562;2024-03-17T12:37:06;99724.84;;;29.22;24.48
54900;BME280;40801;41.924;25.562;2024-03-17T12:39:33;99732.66;;;29.74;24.08
54900;BME280;40801;41.924;25.562;2024-03-17T12:42:03;99731.03;;;29.57;24.09
54900;BME280;40801;41.924;25.562;2024-03-17T12:44:33;99722.91;;;29.43;24.24
54900;BME280;40801;41.924;25.562;2024-03-17T12:47:03;99721.16;;;29.29;24.19
54900;BME280;40801;41.924;25.562;2024-03-17T12:49:30;99715.34;;;29.67;24.08
54900;BME280;40801;41.924;25.562;2024-03-17T12:51:56;99715.63;;;29.52;24.64
54900;BME280;40801;41.924;25.562;2024-03-17T12:54:26;99713.44;;;30.23;22.69
54900;BME280;40801;41.924;25.562;2024-03-17T12:57:03;99705.75;;;29.48;22.44
54900;BME280;40801;41.924;25.562;2024-03-17T12:59:47;99703.03;;;29.87;23.37
54900;BME280;40801;41.924;25.562;2024-03-17T13:02:31;99702.50;;;29.73;23.64
54900;BME280;40801;41.924;25.562;2024-03-17T13:05:07;99704.91;;;29.27;23.43
54900;BME280;40801;41.924;25.562;2024-03-17T13:07:35;99702.38;;;27.64;25.46
54900;BME280;40801;41.924;25.562;2024-03-17T13:10:01;99702.28;;;26.82;25.88
54900;BME280;40801;41.924;25.562;2024-03-17T13:12:27;99702.31;;;26.05;27.40
54900;BME280;40801;41.924;25.562;2024-03-17T13:14:53;99700.88;;;25.15;28.46
54900;BME280;40801;41.924;25.562;2024-03-17T13:17:19;99697.13;;;26.14;27.19
54900;BME280;40801;41.924;25.562;2024-03-17T13:19:45;99699.53;;;26.02;28.00
54900;BME280;40801;41.924;25.562;2024-03-17T13:22:12;99694.84;;;26.72;27.31
54900;BME280;40801;41.924;25.562;2024-03-17T13:24:37;99691.56;;;26.18;27.38
54900;BME280;40801;41.924;25.562;2024-03-17T13:27:03;99683.41;;;27.22;26.94